Time;durP1;ratioP1;P1;durP2;ratioP2;P2;SDS_P1;SDS_P2;PMS_P1;PMS_P2;Temp;Humidity;BMP_temperature;BMP_pressure;BME280_temperature;BME280_humidity;BME280_pressure;Samples;Min_cycle;Max_cycle;Signal;HPM_P1;HPM_P2
2022/01/03 00:01:21;;;;;;;19.02;2.15;;;;;;;12.34;89.82;100302.00;8336185;28;20041;-62
2022/01/03 00:05:22;;;;;;;15.85;2.50;;;;;;;12.36;89.22;100297.28;8351358;28;20397;-62
2022/01/03 00:09:23;;;;;;;19.15;2.20;;;;;;;12.22;90.08;100297.81;8334818;28;20521;-62
2022/01/03 00:13:24;;;;;;;23.15;2.78;;;;;;;12.26;89.31;100299.22;8335447;28;20082;-62
2022/01/03 00:17:24;;;;;;;14.18;1.30;;;;;;;12.26;89.22;100293.81;8352150;28;20048;-62
2022/01/03 00:21:33;;;;;;;16.88;1.63;;;;;;;12.27;88.60;100298.22;8341207;28;20031;-62
2022/01/03 00:25:41;;;;;;;14.77;2.08;;;;;;;12.18;89.73;100299.16;8334711;28;20029;-62
2022/01/03 00:29:44;;;;;;;13.77;2.72;;;;;;;12.27;89.21;100295.50;8332956;28;20569;-62
2022/01/03 00:33:51;;;;;;;23.85;2.80;;;;;;;12.17;92.15;100316.44;8351806;28;20051;-62
2022/01/03 00:37:51;;;;;;;20.05;2.83;;;;;;;12.06;94.75;100313.94;8315908;28;20124;-62
2022/01/03 00:41:52;;;;;;;13.68;2.38;;;;;;;12.03;95.96;100319.66;8300962;28;20508;-62
2022/01/03 00:45:53;;;;;;;18.40;2.20;;;;;;;11.87;99.30;100332.03;8310385;28;20073;-62
2022/01/03 00:49:54;;;;;;;18.05;2.15;;;;;;;11.72;100.00;100333.56;8301504;28;20790;-62
2022/01/03 00:53:55;;;;;;;32.03;2.47;;;;;;;11.60;100.00;100334.78;8291216;28;20402;-62
2022/01/03 00:58:17;;;;;;;15.70;2.40;;;;;;;11.50;100.00;100342.06;8290174;28;20038;-62
2022/01/03 01:02:19;;;;;;;22.30;2.67;;;;;;;11.61;99.37;100347.31;8303509;28;20402;-62
2022/01/03 01:06:21;;;;;;;15.48;2.08;;;;;;;11.75;96.01;100337.84;8290072;28;20042;-61
2022/01/03 01:10:28;;;;;;;22.85;2.97;;;;;;;11.65;96.65;100337.91;8353300;28;20056;-61
2022/01/03 01:14:29;;;;;;;17.77;2.47;;;;;;;11.72;95.23;100344.41;8349501;28;20048;-61
2022/01/03 01:18:31;;;;;;;11.95;2.03;;;;;;;11.73;94.67;100339.84;8323113;28;20064;-61
2022/01/03 01:22:32;;;;;;;19.10;2.75;;;;;;;11.70;93.55;100335.59;8355206;28;20033;-62
2022/01/03 01:27:49;;;;;;;17.50;2.38;;;;;;;11.86;91.60;100343.88;8321763;28;20127;-62
2022/01/03 01:30:59;;;;;;;15.73;2.35;;;;;;;11.87;91.23;100353.72;8308422;28;20038;-62
2022/01/03 01:35:00;;;;;;;16.52;1.92;;;;;;;11.95;90.42;100360.25;8338976;28;20067;-62
2022/01/03 01:39:05;;;;;;;13.07;1.95;;;;;;;11.85;90.67;100361.16;8326450;28;20049;-62
2022/01/03 01:43:06;;;;;;;18.92;2.75;;;;;;;11.90;90.17;100366.94;8323164;28;20036;-63
2022/01/03 01:47:06;;;;;;;13.93;1.85;;;;;;;12.03;89.40;100380.13;8322526;28;20501;-62
2022/01/03 01:51:09;;;;;;;8.85;1.77;;;;;;;11.96;90.00;100384.47;8323158;28;20045;-62
2022/01/03 01:55:12;;;;;;;13.23;2.67;;;;;;;12.02;89.96;100394.69;8323098;28;20068;-62
2022/01/03 01:59:33;;;;;;;18.55;2.33;;;;;;;12.07;89.71;100386.13;8322368;28;20523;-62
2022/01/03 02:03:58;;;;;;;19.50;2.65;;;;;;;12.11;89.23;100382.09;8355356;28;20037;-62
2022/01/03 02:08:16;;;;;;;18.85;3.15;;;;;;;12.04;88.90;100391.84;8347836;28;20041;-62
2022/01/03 02:12:16;;;;;;;13.18;1.65;;;;;;;12.02;88.23;100367.59;8341454;28;20116;-62
2022/01/03 02:16:17;;;;;;;14.00;1.90;;;;;;;12.14;87.06;100365.50;8341016;28;20036;-62
2022/01/03 02:20:21;;;;;;;17.13;2.10;;;;;;;12.12;86.67;100368.38;8329176;28;20040;-62
2022/01/03 02:24:22;;;;;;;13.70;2.40;;;;;;;12.17;87.04;100365.22;8312366;28;20030;-62
2022/01/03 02:28:22;;;;;;;15.70;2.00;;;;;;;12.17;87.11;100376.88;8328893;28;20605;-62
2022/01/03 02:32:23;;;;;;;17.52;2.47;;;;;;;12.06;86.89;100369.00;8329396;28;20037;-62
2022/01/03 02:36:24;;;;;;;17.20;1.92;;;;;;;12.14;85.45;100365.50;8331408;28;20033;-62
2022/01/03 02:40:25;;;;;;;12.85;1.63;;;;;;;12.11;85.77;100363.13;8329317;28;20136;-62
2022/01/03 02:44:25;;;;;;;14.25;1.77;;;;;;;11.92;86.79;100365.97;8329203;28;20033;-62
2022/01/03 02:48:26;;;;;;;15.32;2.35;;;;;;;11.96;86.11;100364.66;8307991;28;20476;-62
2022/01/03 02:52:27;;;;;;;17.58;2.15;;;;;;;11.96;86.24;100373.63;8350244;28;20104;-62
2022/01/03 02:56:33;;;;;;;15.60;1.70;;;;;;;11.95;86.61;100360.25;8340699;28;20096;-62
2022/01/03 03:00:47;;;;;;;17.42;2.33;;;;;;;11.96;86.17;100361.94;8315869;28;20537;-62
2022/01/03 03:04:58;;;;;;;10.20;1.50;;;;;;;12.02;85.78;100366.75;8326289;28;20060;-62
2022/01/03 03:08:58;;;;;;;8.52;2.03;;;;;;;11.85;86.67;100372.00;8298511;28;20099;-62
2022/01/03 03:12:59;;;;;;;14.15;1.60;;;;;;;11.85;87.12;100381.97;8304968;28;20033;-62
2022/01/03 03:16:59;;;;;;;16.70;2.28;;;;;;;11.78;87.78;100381.72;8314420;28;20034;-62
2022/01/03 03:21:00;;;;;;;13.57;1.77;;;;;;;11.75;88.21;100384.72;8307405;28;20041;-62
2022/01/03 03:25:22;;;;;;;11.80;1.88;;;;;;;11.74;87.96;100385.72;8314430;28;20514;-62
2022/01/03 03:29:22;;;;;;;19.08;2.10;;;;;;;11.74;87.94;100393.00;8299107;28;20042;-62
2022/01/03 03:33:23;;;;;;;15.15;1.85;;;;;;;11.63;88.33;100383.25;8294730;28;20383;-62
2022/01/03 03:37:24;;;;;;;16.23;2.30;;;;;;;11.72;87.10;100376.91;8309933;28;20182;-62
2022/01/03 03:41:26;;;;;;;17.38;2.20;;;;;;;11.65;87.35;100380.41;8326330;28;20053;-62
2022/01/03 03:45:27;;;;;;;12.13;1.80;;;;;;;11.60;87.03;100383.50;8326913;28;20061;-62
2022/01/03 03:49:27;;;;;;;20.77;2.22;;;;;;;11.52;87.54;100375.28;8326162;28;20038;-62
2022/01/03 03:53:27;;;;;;;12.13;2.00;;;;;;;11.50;87.52;100377.28;8356549;28;20028;-62
2022/01/03 03:57:28;;;;;;;13.85;1.88;;;;;;;11.58;87.78;100368.41;8353436;28;20030;-62
2022/01/03 04:01:28;;;;;;;11.32;1.92;;;;;;;11.56;88.08;100365.84;8305213;28;20472;-62
2022/01/03 04:05:28;;;;;;;13.38;1.77;;;;;;;11.45;88.85;100368.78;8303518;28;20045;-62
2022/01/03 04:09:29;;;;;;;18.33;2.50;;;;;;;11.45;89.13;100360.66;8306909;28;20046;-62
2022/01/03 04:13:30;;;;;;;9.32;2.08;;;;;;;11.45;89.32;100357.94;8343018;28;20057;-62
2022/01/03 04:17:30;;;;;;;17.48;1.75;;;;;;;11.51;88.71;100356.47;8294811;28;20049;-62
2022/01/03 04:21:31;;;;;;;12.40;2.05;;;;;;;11.58;88.11;100358.44;8315801;28;20076;-62
2022/01/03 04:25:32;;;;;;;8.50;1.50;;;;;;;11.55;87.72;100352.47;8347066;28;20120;-62
2022/01/03 04:29:32;;;;;;;11.35;1.73;;;;;;;11.53;87.21;100351.78;8359166;28;20036;-62
2022/01/03 04:33:33;;;;;;;12.90;2.03;;;;;;;11.64;86.04;100357.88;8358751;28;20446;-62
2022/01/03 04:37:33;;;;;;;9.82;1.90;;;;;;;11.55;86.31;100342.50;8341040;28;20163;-62
2022/01/03 04:41:34;;;;;;;12.95;1.77;;;;;;;11.52;86.61;100348.22;8357786;28;20362;-62
2022/01/03 04:45:34;;;;;;;10.05;1.70;;;;;;;11.59;85.77;100352.00;8325356;28;20687;-62
2022/01/03 04:49:35;;;;;;;17.45;2.30;;;;;;;11.61;85.71;100339.19;8317816;28;20129;-62
2022/01/03 04:53:39;;;;;;;12.98;1.98;;;;;;;11.54;86.09;100340.78;8313654;28;20056;-64
2022/01/03 04:57:40;;;;;;;13.18;2.10;;;;;;;11.54;85.99;100335.38;8304189;28;20054;-64
2022/01/03 05:01:40;;;;;;;14.98;1.70;;;;;;;11.46;86.45;100340.69;8295086;28;20042;-64
2022/01/03 05:05:41;;;;;;;11.80;1.30;;;;;;;11.37;87.03;100343.44;8312584;28;20045;-64
2022/01/03 05:09:41;;;;;;;9.43;1.60;;;;;;;11.30;87.89;100343.19;8323797;28;20056;-65
2022/01/03 05:13:41;;;;;;;17.70;1.88;;;;;;;11.35;87.65;100340.88;8317945;28;20045;-65
2022/01/03 05:17:42;;;;;;;15.73;1.80;;;;;;;11.39;87.32;100331.47;8336265;28;20549;-65
2022/01/03 05:21:42;;;;;;;16.95;2.17;;;;;;;11.39;87.73;100344.13;8319278;28;20029;-65
2022/01/03 05:25:43;;;;;;;12.15;1.90;;;;;;;11.46;87.04;100340.69;8307690;28;20034;-65
2022/01/03 05:29:43;;;;;;;16.13;2.15;;;;;;;11.53;86.71;100338.25;8284801;28;20108;-65
2022/01/03 05:33:43;;;;;;;16.00;2.15;;;;;;;11.60;85.81;100323.09;8281741;28;20099;-65
2022/01/03 05:37:44;;;;;;;19.73;2.80;;;;;;;11.59;86.04;100322.22;8298251;28;20124;-65
2022/01/03 05:41:44;;;;;;;13.90;2.55;;;;;;;11.52;86.38;100321.13;8310536;28;20034;-65
2022/01/03 05:45:46;;;;;;;19.98;2.88;;;;;;;11.51;86.59;100324.84;8309382;28;20051;-65
2022/01/03 05:49:46;;;;;;;17.00;2.30;;;;;;;11.56;86.09;100322.53;8327929;28;20033;-65
2022/01/03 05:53:47;;;;;;;13.40;2.55;;;;;;;11.48;86.44;100308.91;8317226;28;20064;-65
2022/01/03 05:57:47;;;;;;;13.90;1.63;;;;;;;11.42;86.80;100314.94;8313983;28;20041;-65
2022/01/03 06:01:48;;;;;;;13.18;2.15;;;;;;;11.29;88.10;100309.00;8337683;28;20445;-65
2022/01/03 06:10:16;;;;;;;14.48;2.17;;;;;;;11.30;88.32;100299.03;8353234;27;20398;-64
2022/01/03 06:14:18;;;;;;;18.67;2.25;;;;;;;11.21;89.58;100295.38;8342151;28;20523;-65
2022/01/03 06:18:19;;;;;;;17.92;2.80;;;;;;;11.12;90.49;100293.56;8339430;28;20453;-65
2022/01/03 06:22:19;;;;;;;12.95;2.20;;;;;;;11.15;90.95;100298.69;8310747;28;20096;-65
2022/01/03 06:26:20;;;;;;;16.63;1.90;;;;;;;11.12;91.10;100312.50;8342136;28;20484;-65
2022/01/03 06:30:20;;;;;;;17.55;2.08;;;;;;;11.08;91.79;100316.53;8334510;28;20037;-65
2022/01/03 06:34:20;;;;;;;12.63;1.73;;;;;;;11.12;91.71;100315.22;8341873;28;20041;-65
2022/01/03 06:38:21;;;;;;;16.75;2.38;;;;;;;11.15;92.09;100317.63;8340162;28;20037;-65
2022/01/03 06:42:21;;;;;;;15.63;1.92;;;;;;;11.20;91.82;100323.41;8319279;28;20054;-65
2022/01/03 06:46:22;;;;;;;11.25;1.95;;;;;;;11.26;91.71;100322.81;8335506;28;20059;-65
2022/01/03 06:50:23;;;;;;;10.65;1.30;;;;;;;11.28;91.99;100318.13;8326529;28;20052;-65
2022/01/03 06:54:25;;;;;;;10.95;1.38;;;;;;;11.36;91.50;100320.94;8342593;28;20123;-65
2022/01/03 06:58:25;;;;;;;8.13;1.80;;;;;;;11.32;91.83;100324.09;8327656;28;20120;-65
2022/01/03 07:02:26;;;;;;;14.95;2.35;;;;;;;11.30;92.21;100323.38;8330923;28;20045;-65
2022/01/03 07:06:26;;;;;;;13.75;1.70;;;;;;;11.08;93.53;100332.75;8328439;28;20045;-65
2022/01/03 07:10:27;;;;;;;11.65;1.70;;;;;;;11.00;94.34;100319.09;8329346;28;20200;-65
2022/01/03 07:19:05;;;;;;;9.15;1.73;;;;;;;10.90;95.90;100310.19;8317880;28;20065;-65
2022/01/03 07:22:50;;;;;;;10.50;1.95;;;;;;;10.81;96.80;100313.78;8313387;28;20751;-65
2022/01/03 07:26:51;;;;;;;16.80;3.30;;;;;;;10.83;97.10;100325.28;8301654;28;20057;-65
2022/01/03 07:30:51;;;;;;;14.50;2.53;;;;;;;10.93;97.28;100320.72;8315204;28;20045;-65
2022/01/03 07:34:52;;;;;;;16.02;2.17;;;;;;;11.13;96.44;100325.03;8311086;28;20630;-65
2022/01/03 07:38:52;;;;;;;12.18;2.60;;;;;;;11.22;95.66;100317.84;8299383;28;20044;-65
2022/01/03 07:42:53;;;;;;;20.77;3.60;;;;;;;11.20;95.19;100315.31;8312080;28;20037;-65
2022/01/03 07:46:54;;;;;;;10.50;2.17;;;;;;;11.11;95.47;100318.94;8321152;28;20050;-65
2022/01/03 07:50:54;;;;;;;10.00;2.10;;;;;;;11.04;95.77;100311.56;8301351;28;20141;-65
2022/01/03 07:54:55;;;;;;;15.68;3.97;;;;;;;10.97;96.67;100313.13;8299459;28;20050;-65
2022/01/03 07:58:55;;;;;;;7.03;1.50;;;;;;;11.01;96.93;100309.97;8313316;28;20053;-65
2022/01/03 08:02:56;;;;;;;11.80;2.35;;;;;;;11.08;97.31;100316.53;8307795;28;20033;-65
2022/01/03 08:06:56;;;;;;;23.42;4.65;;;;;;;11.12;98.49;100315.22;8314814;28;20045;-65
2022/01/03 08:10:56;;;;;;;15.13;3.10;;;;;;;11.21;98.90;100306.22;8299276;28;20288;-65
2022/01/03 08:14:57;;;;;;;31.30;5.18;;;;;;;11.34;98.52;100314.81;8305034;28;20152;-65
2022/01/03 08:18:58;;;;;;;20.42;3.30;;;;;;;11.51;97.14;100314.03;8310552;28;20033;-65
2022/01/03 08:22:58;;;;;;;26.08;3.95;;;;;;;11.73;94.87;100319.03;8297788;28;20037;-65
2022/01/03 08:26:59;;;;;;;23.35;5.47;;;;;;;11.93;93.22;100325.19;8312005;28;20046;-65
2022/01/03 08:30:59;;;;;;;20.85;2.17;;;;;;;12.08;92.16;100317.34;8285311;28;20034;-65
2022/01/03 08:35:00;;;;;;;14.10;2.65;;;;;;;12.30;91.12;100319.59;8287693;28;20052;-65
2022/01/03 08:39:00;;;;;;;10.65;2.45;;;;;;;12.53;89.90;100329.78;8307005;28;20075;-65
2022/01/03 08:43:01;;;;;;;14.98;3.08;;;;;;;12.58;88.64;100321.16;8303767;28;20041;-65
2022/01/03 08:47:01;;;;;;;17.10;2.58;;;;;;;13.14;86.10;100325.13;8306718;28;20545;-65
2022/01/03 08:51:02;;;;;;;16.38;2.17;;;;;;;13.77;81.68;100325.56;8299846;28;20149;-65
2022/01/03 08:55:04;;;;;;;10.48;2.25;;;;;;;13.62;81.42;100324.50;8295275;28;20507;-65
2022/01/03 08:59:05;;;;;;;16.05;1.70;;;;;;;14.12;80.14;100317.13;8293854;28;20400;-65
2022/01/03 09:03:06;;;;;;;13.20;1.98;;;;;;;14.60;77.74;100322.63;8296922;28;20053;-65
2022/01/03 09:07:06;;;;;;;14.20;2.10;;;;;;;13.98;79.59;100315.06;8298160;28;20552;-65
2022/01/03 09:11:08;;;;;;;14.25;2.75;;;;;;;13.83;80.25;100314.03;8299288;28;20037;-65
2022/01/03 09:15:08;;;;;;;18.85;2.35;;;;;;;13.29;82.47;100304.50;8312226;28;20049;-65
2022/01/03 09:19:09;;;;;;;20.30;2.33;;;;;;;12.91;84.14;100312.25;8303474;28;20363;-65
2022/01/03 09:23:16;;;;;;;17.35;2.60;;;;;;;12.78;84.78;100309.94;8303146;28;20301;-65
2022/01/03 09:28:52;;;;;;;17.40;3.00;;;;;;;12.73;85.89;100304.16;8297939;28;20041;-66
2022/01/03 09:31:39;;;;;;;13.80;2.17;;;;;;;12.68;86.35;100294.78;8295575;28;20054;-66
2022/01/03 09:35:41;;;;;;;15.25;3.30;;;;;;;12.58;86.98;100303.03;8303020;28;20515;-66
2022/01/03 09:39:41;;;;;;;16.40;2.70;;;;;;;12.97;85.48;100303.47;8307444;28;20033;-66
2022/01/03 09:43:53;;;;;;;13.63;2.38;;;;;;;13.12;83.43;100312.75;8302656;28;20080;-66
2022/01/03 09:47:55;;;;;;;13.55;1.75;;;;;;;12.90;84.23;100310.56;8298618;28;20045;-66
2022/01/03 09:51:59;;;;;;;16.08;2.40;;;;;;;12.83;84.48;100301.31;8307977;28;20049;-66
2022/01/03 09:55:59;;;;;;;18.83;2.13;;;;;;;12.84;85.26;100303.06;8312895;28;20041;-66
2022/01/03 10:00:01;;;;;;;19.17;3.45;;;;;;;13.71;81.36;100301.75;8288806;28;20049;-66
2022/01/03 10:04:03;;;;;;;13.90;2.60;;;;;;;13.44;81.60;100293.88;8308831;28;20033;-66
2022/01/03 10:08:03;;;;;;;15.73;2.95;;;;;;;13.12;82.72;100297.28;8307572;28;20053;-66
2022/01/03 10:12:05;;;;;;;15.02;3.13;;;;;;;13.18;83.26;100295.81;8312933;28;20052;-66
2022/01/03 10:16:06;;;;;;;13.63;2.47;;;;;;;13.15;82.90;100280.69;8293715;28;20038;-66
2022/01/03 10:20:10;;;;;;;13.40;2.60;;;;;;;13.12;83.95;100289.13;8308357;28;20076;-66
2022/01/03 10:24:13;;;;;;;17.30;2.27;;;;;;;13.02;84.20;100283.00;8298252;28;20037;-66
2022/01/03 10:28:25;;;;;;;17.08;2.30;;;;;;;13.08;83.11;100270.63;8295993;28;20049;-66
2022/01/03 10:32:29;;;;;;;21.17;2.45;;;;;;;13.28;82.79;100277.53;8305689;28;20044;-66
2022/01/03 10:36:32;;;;;;;12.80;2.55;;;;;;;13.27;83.19;100281.25;8398708;28;20067;-66
2022/01/03 10:40:33;;;;;;;24.52;2.67;;;;;;;13.16;84.08;100278.81;8423771;28;20123;-66
2022/01/03 10:44:37;;;;;;;11.38;1.67;;;;;;;13.20;83.05;100270.19;8381305;28;20056;-66
2022/01/03 10:48:37;;;;;;;9.23;1.48;;;;;;;13.13;83.25;100268.28;8405004;28;20548;-66
2022/01/03 10:52:40;;;;;;;13.02;1.90;;;;;;;12.99;84.51;100249.88;8403401;28;20044;-66
2022/01/03 10:56:42;;;;;;;8.60;1.50;;;;;;;13.01;84.05;100261.44;8382208;28;20041;-66
2022/01/03 11:00:45;;;;;;;14.10;1.42;;;;;;;12.96;85.38;100251.03;8408966;28;20058;-66
2022/01/03 11:04:56;;;;;;;11.27;1.63;;;;;;;12.88;86.34;100266.44;8397946;28;20330;-66
2022/01/03 11:13:19;;;;;;;6.30;0.90;;;;;;;12.89;86.21;100249.13;8407869;28;20086;-66
2022/01/03 11:17:23;;;;;;;8.90;1.00;;;;;;;12.72;86.98;100248.19;8409685;28;20062;-66
2022/01/03 11:21:24;;;;;;;6.70;0.98;;;;;;;12.64;87.30;100236.47;8405535;28;20035;-66
2022/01/03 11:25:30;;;;;;;11.13;2.78;;;;;;;12.56;87.66;100236.44;8421972;27;20043;-66
2022/01/03 11:29:31;;;;;;;8.82;1.38;;;;;;;12.63;86.94;100223.91;8421862;28;20465;-66
2022/01/03 11:33:35;;;;;;;11.38;1.30;;;;;;;12.67;87.09;100219.88;8407865;28;20040;-66
2022/01/03 11:37:39;;;;;;;11.45;1.58;;;;;;;12.74;86.47;100212.78;8417839;28;20570;-66
2022/01/03 11:41:41;;;;;;;7.15;1.50;;;;;;;12.82;86.21;100213.69;8410565;28;20105;-66
2022/01/03 11:45:42;;;;;;;9.20;1.40;;;;;;;12.86;85.78;100200.63;8411643;28;20093;-66
2022/01/03 11:49:43;;;;;;;12.30;1.90;;;;;;;12.89;86.17;100186.72;8395794;28;20555;-66
2022/01/03 11:53:47;;;;;;;9.25;1.67;;;;;;;12.92;86.08;100189.97;8409812;28;20043;-66
2022/01/03 12:03:41;;;;;;;17.35;2.63;;;;;;;12.95;86.52;100183.38;8394397;27;20391;-65
2022/01/03 12:06:46;;;;;;;12.65;1.95;;;;;;;13.07;83.61;100180.22;8363928;27;20045;-66
2022/01/03 12:10:47;;;;;;;17.42;1.90;;;;;;;13.20;81.64;100171.59;8396330;27;20040;-65
2022/01/03 12:14:47;;;;;;;14.07;2.60;;;;;;;13.30;80.01;100164.19;8369548;28;20091;-65
2022/01/03 12:18:57;;;;;;;9.38;1.95;;;;;;;13.23;81.22;100160.41;8354065;28;20049;-65
2022/01/03 12:23:01;;;;;;;7.90;1.38;;;;;;;13.18;80.95;100151.94;8354279;28;20068;-65
2022/01/03 12:27:23;;;;;;;7.97;0.93;;;;;;;13.14;80.89;100164.13;8381396;27;20463;-65
2022/01/03 12:31:23;;;;;;;6.70;1.23;;;;;;;13.11;81.46;100159.03;8360293;27;20079;-65
2022/01/03 12:35:24;;;;;;;8.90;1.17;;;;;;;13.07;81.30;100146.81;8347964;28;20397;-65
2022/01/03 12:39:25;;;;;;;4.55;0.80;;;;;;;13.03;81.13;100161.72;8348825;28;20053;-65
2022/01/03 12:43:45;;;;;;;6.90;1.10;;;;;;;12.99;82.26;100153.06;8353000;28;20320;-65
2022/01/03 12:47:45;;;;;;;6.10;1.08;;;;;;;12.84;83.82;100137.56;8359792;28;20044;-65
2022/01/03 12:51:46;;;;;;;12.05;1.20;;;;;;;12.83;83.88;100141.28;8358826;28;20498;-65
2022/01/03 12:55:50;;;;;;;12.30;1.73;;;;;;;12.88;83.88;100122.63;8357300;28;20122;-65
2022/01/03 12:59:50;;;;;;;7.13;2.43;;;;;;;12.85;84.76;100109.41;8342768;28;20052;-65
2022/01/03 13:03:54;;;;;;;10.95;2.03;;;;;;;12.84;85.48;100096.88;8347549;28;20090;-65
2022/01/03 13:07:54;;;;;;;17.48;2.03;;;;;;;12.87;85.64;100093.81;8360181;28;20134;-65
2022/01/03 13:11:59;;;;;;;13.40;2.17;;;;;;;12.90;85.40;100093.50;8343393;28;20037;-65
2022/01/03 13:15:59;;;;;;;18.38;2.38;;;;;;;13.00;84.72;100084.22;8329735;28;20032;-65
2022/01/03 13:20:00;;;;;;;9.35;1.85;;;;;;;13.01;82.79;100083.19;8332885;28;20045;-65
2022/01/03 13:24:07;;;;;;;9.88;1.45;;;;;;;12.97;82.05;100067.38;8327102;28;20392;-65
2022/01/03 13:28:11;;;;;;;10.00;1.95;;;;;;;12.94;82.84;100067.72;8319290;28;20100;-65
2022/01/03 13:32:30;;;;;;;14.02;1.65;;;;;;;12.78;81.67;100063.09;8318525;28;20041;-65
2022/01/03 13:36:33;;;;;;;7.05;1.52;;;;;;;12.84;80.72;100056.19;8328094;28;20053;-65
2022/01/03 13:40:34;;;;;;;9.90;1.83;;;;;;;12.74;81.79;100050.03;8329805;28;20069;-65
2022/01/03 13:49:12;;;;;;;;;;;;;;;12.45;84.13;100046.91;8336655;28;21412;-65
2022/01/03 13:53:13;;;;;;;7.45;1.40;;;;;;;12.37;86.04;100052.28;8339585;28;21055;-65
2022/01/03 13:57:17;;;;;;;6.97;1.17;;;;;;;12.21;87.31;100044.94;8334988;28;20050;-65
2022/01/03 14:01:19;;;;;;;12.55;1.60;;;;;;;12.13;87.68;100044.06;8338413;28;20101;-65
2022/01/03 14:05:19;;;;;;;8.98;1.38;;;;;;;12.09;88.50;100048.09;8339417;28;20041;-65
2022/01/03 14:09:20;;;;;;;8.60;1.73;;;;;;;12.11;89.49;100046.94;8334122;28;20076;-65
2022/01/03 14:13:22;;;;;;;7.25;1.45;;;;;;;12.00;90.16;100049.06;8334458;28;20051;-65
2022/01/03 14:17:23;;;;;;;7.22;1.52;;;;;;;11.84;91.93;100029.00;8333194;28;20495;-65
2022/01/03 14:21:30;;;;;;;10.27;1.75;;;;;;;11.85;93.06;100025.28;8333515;28;20454;-65
2022/01/03 14:25:30;;;;;;;12.15;1.95;;;;;;;11.69;95.39;100019.75;8338919;28;20053;-65
2022/01/03 14:29:34;;;;;;;23.20;2.70;;;;;;;11.53;98.86;100018.78;8339738;28;20102;-65
2022/01/03 14:33:39;;;;;;;12.70;1.83;;;;;;;11.50;100.00;100009.09;8340653;28;20057;-65
2022/01/03 14:37:40;;;;;;;16.30;2.25;;;;;;;11.41;100.00;99993.81;8332384;28;20359;-65
2022/01/03 14:41:40;;;;;;;13.52;1.52;;;;;;;11.39;100.00;100001.28;8341150;28;20132;-65
2022/01/03 14:45:41;;;;;;;18.55;1.90;;;;;;;11.30;100.00;99996.81;8330740;28;20037;-64
2022/01/03 14:50:01;;;;;;;10.75;1.50;;;;;;;11.32;100.00;99986.66;8327532;28;20038;-64
2022/01/03 14:54:22;;;;;;;12.70;1.90;;;;;;;11.31;100.00;99971.44;8333735;28;20449;-64
2022/01/03 14:58:23;;;;;;;12.20;1.25;;;;;;;11.31;100.00;99957.91;8324023;28;20086;-64
2022/01/03 15:02:24;;;;;;;9.60;1.67;;;;;;;11.30;100.00;99950.81;8329519;28;20040;-64
2022/01/03 15:06:24;;;;;;;13.60;2.40;;;;;;;11.30;100.00;99948.09;8323042;28;20536;-64
2022/01/03 15:10:25;;;;;;;13.07;2.30;;;;;;;11.29;100.00;99935.56;8325901;28;20417;-64
2022/01/03 15:14:25;;;;;;;13.25;1.73;;;;;;;11.31;100.00;99936.25;8376528;28;20044;-64
2022/01/03 15:18:26;;;;;;;8.30;1.65;;;;;;;11.39;100.00;99936.31;8405329;28;20040;-64
2022/01/03 15:22:27;;;;;;;14.90;2.45;;;;;;;11.26;100.00;99933.16;8382417;28;20496;-64
2022/01/03 15:26:27;;;;;;;9.27;2.03;;;;;;;11.28;100.00;99928.44;8386209;28;20053;-64
2022/01/03 15:30:37;;;;;;;10.20;1.95;;;;;;;11.36;100.00;99928.50;8391987;28;20400;-64
2022/01/03 15:34:37;;;;;;;14.98;3.60;;;;;;;11.41;100.00;99920.75;8385346;28;20175;-64
2022/01/03 15:38:38;;;;;;;12.75;2.55;;;;;;;11.42;100.00;99906.22;8410866;28;20039;-64
2022/01/03 15:42:38;;;;;;;11.35;1.80;;;;;;;11.44;100.00;99900.66;8413102;28;20040;-64
2022/01/03 15:46:40;;;;;;;6.15;1.58;;;;;;;11.43;100.00;99910.63;8379622;28;20040;-64
2022/01/03 15:50:41;;;;;;;11.20;2.20;;;;;;;11.43;100.00;99899.78;8409290;28;20044;-64
2022/01/03 15:54:41;;;;;;;16.02;3.95;;;;;;;11.50;100.00;99892.72;8408136;28;20038;-64
2022/01/03 15:58:41;;;;;;;13.50;2.55;;;;;;;11.54;100.00;99885.13;8409391;28;20074;-64
2022/01/03 16:02:42;;;;;;;21.73;6.10;;;;;;;11.53;100.00;99870.72;8402107;28;20051;-64
2022/01/03 16:06:42;;;;;;;25.88;7.60;;;;;;;11.57;100.00;99880.25;8408898;28;20035;-64
2022/01/03 16:10:43;;;;;;;20.48;6.25;;;;;;;11.55;100.00;99881.41;8414917;28;20032;-64
2022/01/03 16:14:43;;;;;;;15.38;4.25;;;;;;;11.51;100.00;99864.66;8400928;28;20418;-64
2022/01/03 16:18:44;;;;;;;11.18;2.08;;;;;;;11.46;100.00;99880.53;8402168;28;20653;-64
2022/01/03 16:22:44;;;;;;;12.02;2.25;;;;;;;11.33;100.00;99899.06;8391247;28;20076;-64
2022/01/03 16:26:46;;;;;;;14.80;2.45;;;;;;;11.13;100.00;99897.56;8399551;28;20484;-64
2022/01/03 16:30:47;;;;;;;10.35;2.00;;;;;;;11.02;100.00;99889.75;8411742;28;20044;-63
2022/01/03 16:34:49;;;;;;;7.20;1.52;;;;;;;10.96;100.00;99884.97;8426116;28;20039;-63
2022/01/03 16:38:52;;;;;;;6.50;1.27;;;;;;;10.94;100.00;99865.34;8409495;28;20748;-63
2022/01/03 16:42:53;;;;;;;4.82;0.77;;;;;;;10.86;100.00;99856.31;8383636;28;20043;-63
2022/01/03 16:46:53;;;;;;;1.80;0.57;;;;;;;10.78;100.00;99849.00;8378136;28;20087;-63
2022/01/03 16:50:53;;;;;;;2.70;0.80;;;;;;;10.73;100.00;99840.50;8412971;28;20458;-63
2022/01/03 16:54:54;;;;;;;3.88;0.80;;;;;;;10.67;100.00;99843.84;8425876;28;20040;-63
2022/01/03 16:58:54;;;;;;;2.22;0.88;;;;;;;10.64;100.00;99819.00;8425774;28;20039;-63
2022/01/03 17:02:55;;;;;;;4.22;0.80;;;;;;;10.61;100.00;99819.31;8426984;28;20046;-63
2022/01/03 17:06:55;;;;;;;9.43;3.72;;;;;;;10.70;100.00;99813.78;8413701;28;20115;-63
2022/01/03 17:10:57;;;;;;;17.05;8.98;;;;;;;10.71;100.00;99815.50;8389519;28;20032;-63
2022/01/03 17:14:58;;;;;;;3.17;2.05;;;;;;;10.76;100.00;99813.16;8386348;28;20131;-63
2022/01/03 17:18:58;;;;;;;4.18;2.30;;;;;;;10.82;100.00;99804.41;8407128;28;20056;-63
2022/01/03 17:22:59;;;;;;;4.40;1.75;;;;;;;10.78;100.00;99805.75;8392375;28;20028;-63
2022/01/03 17:26:59;;;;;;;4.03;1.10;;;;;;;10.83;100.00;99797.97;8410357;28;20062;-63
2022/01/03 17:31:00;;;;;;;1.88;1.13;;;;;;;10.89;100.00;99802.75;8416065;28;20499;-63
2022/01/03 17:35:01;;;;;;;3.45;0.82;;;;;;;10.84;100.00;99799.69;8412034;28;20460;-63
2022/01/03 17:39:03;;;;;;;3.97;1.05;;;;;;;10.82;100.00;99801.72;8407962;28;20044;-63
2022/01/03 17:43:03;;;;;;;6.15;1.20;;;;;;;10.81;100.00;99783.81;8413231;28;20401;-63
2022/01/03 17:47:04;;;;;;;3.28;1.20;;;;;;;10.81;100.00;99775.69;8404711;28;20082;-63
2022/01/03 17:51:07;;;;;;;5.22;1.55;;;;;;;10.83;100.00;99770.94;8403666;28;20094;-63
2022/01/03 17:55:08;;;;;;;5.45;1.73;;;;;;;10.82;100.00;99774.66;8398299;28;20150;-63
2022/01/03 17:59:08;;;;;;;7.90;2.83;;;;;;;10.79;100.00;99785.81;8413643;28;20129;-63
2022/01/03 18:03:09;;;;;;;11.93;2.05;;;;;;;10.82;100.00;99774.66;8418524;28;20040;-63
2022/01/03 18:07:13;;;;;;;7.55;2.40;;;;;;;10.84;100.00;99767.25;8415257;28;20551;-63
2022/01/03 18:11:14;;;;;;;5.55;2.72;;;;;;;10.87;100.00;99766.94;8383363;28;20127;-63
2022/01/03 18:15:15;;;;;;;4.35;1.60;;;;;;;10.94;100.00;99761.72;8374586;28;20032;-63
2022/01/03 18:19:16;;;;;;;2.55;1.60;;;;;;;10.95;100.00;99753.44;8402756;28;20044;-63
2022/01/03 18:23:16;;;;;;;4.97;1.50;;;;;;;10.90;100.00;99744.13;8413417;28;20051;-63
2022/01/03 18:27:16;;;;;;;4.63;1.10;;;;;;;10.92;100.00;99732.13;8417978;28;20511;-63
2022/01/03 18:31:18;;;;;;;2.00;1.05;;;;;;;10.97;100.00;99734.34;8420424;28;20048;-63
2022/01/03 18:35:19;;;;;;;3.38;1.40;;;;;;;10.92;100.00;99732.13;8424135;28;20090;-63
2022/01/03 18:39:20;;;;;;;2.10;1.05;;;;;;;10.92;100.00;99712.38;8400589;28;20047;-63
2022/01/03 18:43:20;;;;;;;4.40;1.10;;;;;;;10.94;100.00;99715.75;8417472;28;20031;-63
2022/01/03 18:47:23;;;;;;;3.55;0.98;;;;;;;10.97;100.00;99710.88;8417336;27;20038;-63
2022/01/03 18:51:24;;;;;;;1.75;1.13;;;;;;;10.94;100.00;99713.91;8427172;28;20032;-63
2022/01/03 18:55:24;;;;;;;2.45;1.05;;;;;;;10.98;100.00;99704.44;8423711;28;20043;-63
2022/01/03 18:59:27;;;;;;;2.55;0.80;;;;;;;11.00;100.00;99707.84;8414836;27;20419;-63